createdAt,value
2018-05-25T00:00:05.722Z,67.00
2018-05-25T00:02:34.641Z,66.70
2018-05-25T00:05:03.561Z,66.10
2018-05-25T00:10:02.539Z,66.40
2018-05-25T00:12:31.443Z,66.90
2018-05-25T00:17:31.561Z,66.70
2018-05-25T00:20:01.593Z,66.70
2018-05-25T00:22:30.497Z,66.00
2018-05-25T00:27:30.619Z,67.50
2018-05-25T00:29:59.548Z,66.60
2018-05-25T00:32:29.600Z,67.60
2018-05-25T00:34:58.520Z,66.60
2018-05-25T00:37:28.576Z,66.80
2018-05-25T00:39:57.487Z,67.70
2018-05-25T00:42:26.416Z,67.40
2018-05-25T00:44:55.320Z,68.80
2018-05-25T00:49:56.920Z,68.90
2018-05-25T00:52:25.828Z,68.20
2018-05-25T00:55:06.736Z,68.90
2018-05-25T00:57:35.634Z,69.40
2018-05-25T01:02:34.737Z,69.40
2018-05-25T01:05:03.652Z,69.50
2018-05-25T01:07:32.616Z,70.00
2018-05-25T01:10:01.516Z,70.80
2018-05-25T01:12:31.196Z,72.20
2018-05-25T01:15:01.289Z,70.80
2018-05-25T01:17:30.200Z,71.80
2018-05-25T01:22:29.907Z,72.10
2018-05-25T01:24:59.990Z,71.90
2018-05-25T01:27:29.667Z,73.40
2018-05-25T01:29:59.354Z,72.70
2018-05-25T01:32:28.266Z,74.10
2018-05-25T01:34:57.596Z,74.00
2018-05-25T01:37:26.501Z,75.00
2018-05-25T01:39:55.420Z,74.20
2018-05-25T01:42:24.327Z,75.70
2018-05-25T01:44:54.053Z,74.80
2018-05-25T01:47:23.714Z,75.80
2018-05-25T01:49:52.644Z,76.20
2018-05-25T01:54:52.011Z,76.70
2018-05-25T01:57:21.365Z,77.20
2018-05-25T01:59:51.415Z,77.60
2018-05-25T02:02:20.352Z,77.50
2018-05-25T02:04:49.256Z,79.00
2018-05-25T02:07:18.581Z,78.80
2018-05-25T02:09:48.642Z,79.80
2018-05-25T02:12:17.568Z,80.30
2018-05-25T02:14:47.988Z,80.60
2018-05-25T02:17:17.691Z,80.90
2018-05-25T02:19:48.528Z,81.40
2018-05-25T02:22:18.979Z,81.60
2018-05-25T02:24:47.914Z,82.50
2018-05-25T02:27:17.606Z,83.20
2018-05-25T02:29:46.518Z,83.60
2018-05-25T02:32:15.457Z,84.60
2018-05-25T02:34:44.360Z,85.90
2018-05-25T02:37:13.692Z,85.50
2018-05-25T02:42:13.454Z,86.90
2018-05-25T02:47:13.552Z,88.10
2018-05-25T02:49:42.467Z,88.90
2018-05-25T02:52:11.387Z,89.00
2018-05-25T02:57:10.453Z,91.00
2018-05-25T03:02:09.485Z,91.50
2018-05-25T03:04:39.877Z,91.60
2018-05-25T03:07:08.799Z,92.00
2018-05-25T03:09:38.487Z,92.70
2018-05-25T03:12:08.322Z,92.50
2018-05-25T03:14:37.315Z,92.70
2018-05-25T03:17:06.653Z,92.90
2018-05-25T03:19:36.668Z,93.20
2018-05-25T03:22:05.618Z,93.60
2018-05-25T03:27:05.342Z,95.30
2018-05-25T03:34:35.090Z,96.70
2018-05-25T03:37:05.149Z,97.30
2018-05-25T03:39:35.519Z,97.70
2018-05-25T03:42:04.440Z,97.60
2018-05-25T03:44:34.480Z,97.70
2018-05-25T03:47:03.435Z,97.60
2018-05-25T03:52:02.670Z,98.80
2018-05-25T03:54:32.722Z,98.70
2018-05-25T03:57:02.433Z,99.50
2018-05-25T04:02:08.248Z,99.90
2018-05-25T04:04:37.184Z,99.90
2018-05-25T04:09:36.553Z,99.90
2018-05-25T04:12:05.469Z,99.90
2018-05-25T04:14:34.412Z,99.90
2018-05-25T04:17:03.315Z,99.90
2018-05-25T04:19:33.382Z,99.90
2018-05-25T04:22:03.517Z,99.90
2018-05-25T04:24:32.429Z,99.90
2018-05-25T04:34:33.468Z,99.90
2018-05-25T04:37:03.523Z,99.90
2018-05-25T04:39:32.840Z,99.90
2018-05-25T04:42:02.503Z,99.90
2018-05-25T04:44:31.423Z,99.90
2018-05-25T04:47:01.473Z,99.90
2018-05-25T04:49:31.175Z,99.90
2018-05-25T04:52:00.088Z,99.90
2018-05-25T04:54:30.508Z,99.90
2018-05-25T04:56:59.855Z,99.90
2018-05-25T04:59:29.581Z,99.90
2018-05-25T05:01:58.504Z,99.90
2018-05-25T05:04:27.424Z,99.90
2018-05-25T05:09:26.909Z,99.90
2018-05-25T05:11:55.827Z,99.90
2018-05-25T05:14:24.755Z,99.90
2018-05-25T05:16:53.667Z,99.90
2018-05-25T05:21:52.641Z,99.40
2018-05-25T05:24:22.701Z,99.30
2018-05-25T05:26:52.389Z,99.60
2018-05-25T05:31:53.620Z,98.90
2018-05-25T05:34:23.537Z,98.90
2018-05-25T05:36:52.452Z,97.40
2018-05-25T05:39:21.775Z,97.30
2018-05-25T05:44:22.187Z,97.20
2018-05-25T05:46:51.179Z,97.20
2018-05-25T05:49:20.110Z,97.40
2018-05-25T05:51:49.775Z,96.10
2018-05-25T05:54:19.456Z,95.50
2018-05-25T05:56:49.136Z,95.90
2018-05-25T06:01:48.123Z,95.80
2018-05-25T06:04:17.432Z,95.60
2018-05-25T06:06:47.494Z,94.70
2018-05-25T06:09:17.539Z,94.60
2018-05-25T06:11:47.241Z,94.70
2018-05-25T06:14:17.286Z,93.90
2018-05-25T06:16:46.621Z,94.10
2018-05-25T06:19:15.558Z,94.30
2018-05-25T06:21:45.238Z,94.80
2018-05-25T06:24:14.609Z,94.70
2018-05-25T06:26:44.217Z,94.30
2018-05-25T06:29:14.113Z,94.20
2018-05-25T06:31:43.818Z,93.60
2018-05-25T06:34:13.551Z,93.70
2018-05-25T06:36:42.490Z,94.20
2018-05-25T06:39:12.188Z,94.00
2018-05-25T06:41:41.121Z,93.50
2018-05-25T06:44:11.549Z,93.30
2018-05-25T06:46:40.447Z,93.00
2018-05-25T06:49:09.780Z,92.50
2018-05-25T06:51:39.080Z,92.10
2018-05-25T06:54:09.532Z,91.60
2018-05-25T06:59:09.286Z,91.40
2018-05-25T07:01:38.220Z,92.10
2018-05-25T07:04:07.145Z,90.70
2018-05-25T07:06:37.204Z,91.20
2018-05-25T07:09:06.885Z,91.60
2018-05-25T07:11:35.808Z,91.60
2018-05-25T07:14:05.488Z,90.70
2018-05-25T07:19:04.510Z,90.50
2018-05-25T07:21:33.552Z,90.70
2018-05-25T07:24:02.436Z,90.80
2018-05-25T07:26:32.142Z,91.10
2018-05-25T07:31:31.119Z,91.10
2018-05-25T07:34:00.800Z,90.80
2018-05-25T07:36:29.735Z,91.10
2018-05-25T07:38:58.650Z,91.10
2018-05-25T07:43:58.373Z,89.00
2018-05-25T07:48:57.339Z,86.90
2018-05-25T07:51:26.725Z,87.90
2018-05-25T07:53:56.379Z,89.70
2018-05-25T07:58:56.769Z,87.70
2018-05-25T08:01:25.686Z,88.40
2018-05-25T08:03:55.395Z,86.80
2018-05-25T08:06:24.713Z,86.40
2018-05-25T08:08:53.653Z,85.20
2018-05-25T08:11:22.580Z,86.20
2018-05-25T08:13:51.515Z,83.20
2018-05-25T08:18:50.558Z,79.80
2018-05-25T08:21:19.514Z,79.30
2018-05-25T08:26:19.268Z,79.30
2018-05-25T08:28:48.981Z,80.80
2018-05-25T08:31:17.881Z,80.40
2018-05-25T08:33:46.788Z,76.90
2018-05-25T08:36:15.713Z,78.10
2018-05-25T08:38:45.056Z,77.90
2018-05-25T08:41:13.971Z,76.20
2018-05-25T08:43:44.382Z,75.90
2018-05-25T08:46:14.520Z,76.40
2018-05-25T08:48:43.435Z,75.30
2018-05-25T08:51:13.246Z,76.00
2018-05-25T08:53:43.580Z,73.70
2018-05-25T08:56:13.878Z,72.10
2018-05-25T08:58:43.618Z,73.90
2018-05-25T09:03:42.663Z,71.90
2018-05-25T09:06:13.514Z,69.70
2018-05-25T09:08:42.430Z,69.30
2018-05-25T09:11:12.500Z,70.00
2018-05-25T09:13:41.541Z,68.50
2018-05-25T09:16:11.252Z,68.90
2018-05-25T09:18:40.226Z,67.70
2018-05-25T09:21:09.910Z,68.50
2018-05-25T09:23:40.448Z,68.10
2018-05-25T09:26:09.356Z,66.30
2018-05-25T09:28:39.846Z,65.40
2018-05-25T09:31:09.554Z,66.40
2018-05-25T09:33:38.502Z,65.10
2018-05-25T09:36:08.189Z,64.10
2018-05-25T09:38:37.876Z,65.70
2018-05-25T09:41:07.543Z,62.50
2018-05-25T09:43:36.522Z,62.20
2018-05-25T09:46:05.439Z,60.00
2018-05-25T09:48:34.778Z,61.50
2018-05-25T09:53:35.381Z,60.50
2018-05-25T09:56:04.752Z,59.00
2018-05-25T09:58:34.249Z,58.70
2018-05-25T10:01:03.576Z,60.20
2018-05-25T10:03:33.950Z,59.30
2018-05-25T10:06:03.365Z,58.00
2018-05-25T10:08:33.438Z,56.30
2018-05-25T10:11:03.420Z,59.10
2018-05-25T10:16:02.386Z,56.90
2018-05-25T10:18:31.293Z,57.60
2018-05-25T10:21:01.414Z,55.20
2018-05-25T10:23:31.440Z,55.10
2018-05-25T10:26:02.300Z,55.10
2018-05-25T10:28:31.468Z,55.50
2018-05-25T10:33:31.248Z,56.50
2018-05-25T10:36:00.895Z,55.10
2018-05-25T10:38:30.606Z,57.10
2018-05-25T10:41:00.488Z,54.30
2018-05-25T10:43:29.398Z,54.40
2018-05-25T10:45:59.471Z,54.20
2018-05-25T10:48:29.069Z,52.80
2018-05-25T10:50:58.748Z,52.50
2018-05-25T10:53:28.951Z,54.50
2018-05-25T10:55:59.205Z,53.70
2018-05-25T10:58:28.094Z,51.50
2018-05-25T11:00:57.784Z,50.80
2018-05-25T11:03:29.151Z,53.00
2018-05-25T11:06:01.326Z,52.60
2018-05-25T11:08:31.097Z,52.20
2018-05-25T11:11:00.136Z,52.10
2018-05-25T11:13:29.530Z,52.00
2018-05-25T11:15:58.484Z,51.60
2018-05-25T11:18:28.147Z,47.90
2018-05-25T11:20:57.480Z,47.90
2018-05-25T11:23:26.855Z,48.20
2018-05-25T11:25:56.293Z,48.00
2018-05-25T11:28:26.342Z,46.90
2018-05-25T11:30:55.296Z,46.40
2018-05-25T11:33:24.229Z,45.00
2018-05-25T11:35:53.170Z,46.80
2018-05-25T11:38:22.503Z,46.60
2018-05-25T11:40:52.172Z,45.70
2018-05-25T11:43:22.600Z,43.80
2018-05-25T11:45:51.550Z,45.60
2018-05-25T11:48:21.250Z,43.70
2018-05-25T11:50:50.550Z,43.90
2018-05-25T11:53:19.492Z,44.80
2018-05-25T11:55:48.418Z,43.70
2018-05-25T11:58:18.113Z,43.40
2018-05-25T12:00:47.800Z,44.20
2018-05-25T12:03:16.728Z,44.70
2018-05-25T12:05:47.811Z,44.90
2018-05-25T12:08:17.658Z,45.70
2018-05-25T12:10:49.070Z,42.50
2018-05-25T12:13:18.371Z,43.50
2018-05-25T12:15:48.214Z,42.70
2018-05-25T12:18:17.792Z,42.30
2018-05-25T12:20:46.720Z,39.50
2018-05-25T12:23:16.400Z,41.00
2018-05-25T12:28:15.785Z,40.70
2018-05-25T12:33:14.764Z,40.80
2018-05-25T12:35:44.449Z,40.30
2018-05-25T12:38:14.136Z,41.50
2018-05-25T12:40:43.778Z,41.90
2018-05-25T12:43:14.179Z,41.50
2018-05-25T12:45:43.108Z,41.30
2018-05-25T12:48:12.840Z,40.80
2018-05-25T12:50:41.745Z,38.20
2018-05-25T12:53:11.448Z,38.10
2018-05-25T12:55:41.506Z,38.30
2018-05-25T12:58:11.521Z,37.20
2018-05-25T13:00:40.442Z,35.90
2018-05-25T13:03:09.368Z,36.30
2018-05-25T13:05:38.304Z,37.10
2018-05-25T13:08:08.104Z,36.30
2018-05-25T13:10:37.388Z,34.80
2018-05-25T13:13:06.344Z,33.30
2018-05-25T13:15:36.938Z,34.00
2018-05-25T13:18:06.631Z,34.30
2018-05-25T13:25:37.728Z,37.60
2018-05-25T13:28:06.654Z,36.80
2018-05-25T13:30:36.378Z,38.10
2018-05-25T13:33:06.079Z,35.90
2018-05-25T13:35:35.101Z,35.60
2018-05-25T13:38:04.424Z,34.80
2018-05-25T13:40:33.342Z,34.60
2018-05-25T13:43:02.258Z,35.30
2018-05-25T13:45:31.170Z,36.50
2018-05-25T13:48:01.236Z,36.60
2018-05-25T13:50:30.579Z,36.70
2018-05-25T13:52:59.581Z,36.40
2018-05-25T13:55:28.487Z,36.00
2018-05-25T13:57:57.463Z,35.70
2018-05-25T14:00:27.504Z,35.80
2018-05-25T14:02:57.894Z,32.70
2018-05-25T14:05:27.231Z,30.80
2018-05-25T14:07:56.556Z,31.10
2018-05-25T14:10:25.496Z,32.30
2018-05-25T14:12:55.182Z,31.80
2018-05-25T14:17:54.916Z,29.60
2018-05-25T14:20:23.820Z,29.20
2018-05-25T14:22:53.541Z,30.00
2018-05-25T14:25:23.234Z,29.20
2018-05-25T14:27:52.164Z,28.70
2018-05-25T14:30:21.535Z,29.10
2018-05-25T14:32:50.870Z,29.80
2018-05-25T14:35:19.805Z,31.00
2018-05-25T14:37:48.739Z,32.60
2018-05-25T14:40:18.443Z,32.60
2018-05-25T14:42:48.057Z,33.20
2018-05-25T14:45:17.386Z,34.40
2018-05-25T14:47:46.302Z,35.80
2018-05-25T14:50:16.233Z,37.00
2018-05-25T14:52:45.900Z,38.40
2018-05-25T14:55:14.834Z,38.10
2018-05-25T14:57:44.522Z,38.50
2018-05-25T15:00:13.449Z,37.90
2018-05-25T15:02:43.132Z,36.50
2018-05-25T15:05:12.459Z,37.60
2018-05-25T15:07:43.264Z,36.30
2018-05-25T15:10:12.184Z,37.60
2018-05-25T15:12:41.146Z,37.50
2018-05-25T15:17:40.116Z,38.10
2018-05-25T15:22:39.951Z,41.10
2018-05-25T15:25:09.268Z,40.90
2018-05-25T15:27:38.561Z,40.80
2018-05-25T15:30:07.496Z,41.40
2018-05-25T15:32:38.099Z,41.10
2018-05-25T15:35:06.868Z,41.40
2018-05-25T15:37:36.552Z,39.90
2018-05-25T15:40:05.484Z,40.30
2018-05-25T15:42:35.154Z,40.60
2018-05-25T15:45:04.832Z,40.10
2018-05-25T15:47:33.760Z,39.70
2018-05-25T15:50:02.680Z,38.60
2018-05-25T15:52:32.364Z,39.40
2018-05-25T15:55:01.299Z,39.40
2018-05-25T16:00:00.287Z,41.10
2018-05-25T16:02:30.457Z,41.20
2018-05-25T16:05:00.170Z,39.20
2018-05-25T16:07:29.498Z,39.40
2018-05-25T16:09:58.414Z,39.30
2018-05-25T16:12:28.116Z,40.50
2018-05-25T16:14:57.829Z,39.80
2018-05-25T16:19:56.794Z,40.30
2018-05-25T16:22:25.712Z,39.60
2018-05-25T16:24:54.721Z,38.90
2018-05-25T16:27:24.399Z,39.00
2018-05-25T16:29:54.111Z,38.70
2018-05-25T16:32:23.796Z,38.00
2018-05-25T16:34:53.488Z,38.70
2018-05-25T16:37:22.418Z,38.80
2018-05-25T16:39:52.469Z,39.30
2018-05-25T16:42:23.260Z,38.90
2018-05-25T16:44:52.173Z,40.10
2018-05-25T16:47:21.495Z,41.00
2018-05-25T16:52:21.257Z,41.50
2018-05-25T16:54:51.542Z,42.10
2018-05-25T16:57:20.464Z,42.00
2018-05-25T16:59:50.140Z,42.40
2018-05-25T17:02:19.094Z,43.00
2018-05-25T17:04:48.011Z,43.00
2018-05-25T17:07:18.440Z,42.80
2018-05-25T17:12:18.257Z,40.90
2018-05-25T17:14:48.664Z,40.00
2018-05-25T17:17:18.357Z,39.90
2018-05-25T17:22:17.364Z,41.10
2018-05-25T17:24:46.390Z,40.80
2018-05-25T17:27:16.476Z,41.70
2018-05-25T17:32:16.958Z,42.10
2018-05-25T17:34:46.657Z,41.70
2018-05-25T17:37:15.605Z,40.10
2018-05-25T17:39:45.664Z,41.60
2018-05-25T17:42:14.626Z,43.70
2018-05-25T17:44:44.298Z,44.60
2018-05-25T17:47:13.601Z,45.10
2018-05-25T17:49:42.925Z,45.40
2018-05-25T17:52:12.621Z,45.70
2018-05-25T17:54:42.673Z,45.90
2018-05-25T17:57:11.599Z,46.00
2018-05-25T18:02:10.548Z,46.50
2018-05-25T18:04:39.462Z,47.20
2018-05-25T18:07:08.412Z,47.00
2018-05-25T18:09:37.326Z,46.50
2018-05-25T18:12:07.404Z,46.70
2018-05-25T18:14:36.338Z,47.30
2018-05-25T18:17:06.396Z,47.50
2018-05-25T18:22:05.548Z,47.00
2018-05-25T18:24:34.472Z,47.50
2018-05-25T18:27:03.437Z,47.20
2018-05-25T18:29:32.351Z,47.20
2018-05-25T18:32:01.275Z,47.10
2018-05-25T18:34:30.246Z,47.40
2018-05-25T18:39:30.667Z,47.80
2018-05-25T18:41:59.591Z,48.40
2018-05-25T18:44:28.926Z,48.40
2018-05-25T18:46:59.368Z,48.70
2018-05-25T18:49:28.286Z,48.40
2018-05-25T18:51:57.232Z,48.50
2018-05-25T18:57:03.806Z,48.10
2018-05-25T18:59:33.496Z,48.30
2018-05-25T19:02:02.409Z,48.20
2018-05-25T19:09:33.369Z,47.80
2018-05-25T19:12:03.082Z,47.50
2018-05-25T19:17:03.405Z,47.80
2018-05-25T19:19:32.357Z,48.30
2018-05-25T19:22:02.413Z,48.10
2018-05-25T19:27:03.177Z,47.60
2018-05-25T19:32:03.889Z,48.70
2018-05-25T19:34:33.956Z,48.70
2018-05-25T19:37:04.132Z,47.90
2018-05-25T19:42:03.781Z,47.80
2018-05-25T19:44:33.833Z,48.20
2018-05-25T19:47:03.534Z,48.30
2018-05-25T19:52:03.583Z,49.50
2018-05-25T19:54:33.642Z,48.90
2018-05-25T20:02:03.468Z,48.90
2018-05-25T20:07:03.602Z,48.60
2018-05-25T20:12:04.747Z,48.70
2018-05-25T20:14:34.444Z,48.30
2018-05-25T20:17:04.118Z,48.20
2018-05-25T20:22:04.070Z,48.30
2018-05-25T20:24:33.770Z,48.70
2018-05-25T20:27:02.802Z,48.70
2018-05-25T20:29:33.640Z,48.60
2018-05-25T20:34:33.577Z,49.40
2018-05-25T20:39:33.350Z,49.20
2018-05-25T20:42:03.130Z,49.30
2018-05-25T20:47:02.894Z,49.30
2018-05-25T20:49:33.328Z,49.40
2018-05-25T20:52:03.032Z,49.80
2018-05-25T20:54:32.379Z,49.70
2018-05-25T20:59:32.470Z,50.30
2018-05-25T21:02:01.388Z,50.50
2018-05-25T21:04:31.822Z,50.50
2018-05-25T21:12:02.173Z,50.90
2018-05-25T21:14:31.488Z,51.00
2018-05-25T21:19:31.231Z,51.20
2018-05-25T21:22:00.188Z,51.20
2018-05-25T21:24:30.232Z,51.50
2018-05-25T21:26:59.555Z,51.60
2018-05-25T21:29:28.484Z,51.90
2018-05-25T21:31:58.927Z,52.40
2018-05-25T21:34:28.980Z,52.20
2018-05-25T21:36:59.402Z,52.00
2018-05-25T21:41:58.387Z,52.40
2018-05-25T21:44:28.817Z,52.20
2018-05-25T21:46:58.509Z,52.50
2018-05-25T21:49:28.944Z,52.70
2018-05-25T21:51:57.917Z,52.60
2018-05-25T21:56:57.311Z,53.10
2018-05-25T21:59:27.363Z,53.50
2018-05-25T22:01:57.440Z,53.50
2018-05-25T22:04:26.371Z,54.10
2018-05-25T22:06:55.282Z,53.90
2018-05-25T22:09:24.609Z,53.80
2018-05-25T22:11:53.641Z,54.00
2018-05-25T22:14:22.633Z,54.20
2018-05-25T22:16:51.574Z,54.20
2018-05-25T22:19:20.474Z,54.80
2018-05-25T22:21:49.394Z,54.90
2018-05-25T22:24:19.454Z,54.70
2018-05-25T22:26:49.142Z,55.00
2018-05-25T22:29:18.836Z,55.20
2018-05-25T22:34:18.579Z,55.70
2018-05-25T22:41:50.453Z,56.10
2018-05-25T22:44:32.304Z,56.20
2018-05-25T22:49:49.277Z,56.50
2018-05-25T22:52:24.976Z,57.00
2018-05-25T22:54:57.617Z,56.80
2018-05-25T22:57:26.541Z,57.10
2018-05-25T22:59:55.485Z,57.30
2018-05-25T23:02:25.188Z,58.10
2018-05-25T23:04:54.095Z,57.70
2018-05-25T23:07:23.419Z,57.70
2018-05-25T23:09:52.329Z,57.70
2018-05-25T23:12:21.248Z,57.90
2018-05-25T23:14:50.163Z,58.10
2018-05-25T23:17:19.862Z,58.40
2018-05-25T23:19:49.901Z,57.90
2018-05-25T23:22:18.855Z,58.10
2018-05-25T23:27:19.568Z,58.30
2018-05-25T23:32:18.532Z,59.00
2018-05-25T23:37:18.664Z,59.00
2018-05-25T23:42:17.667Z,59.30
2018-05-25T23:44:47.369Z,60.20
2018-05-25T23:47:17.075Z,59.60
2018-05-25T23:49:46.393Z,59.20
2018-05-25T23:52:16.076Z,60.10
2018-05-25T23:54:45.747Z,59.70
2018-05-25T23:57:15.423Z,59.70
2018-05-25T23:59:45.124Z,59.90
